sensor_id;sensor_type;location;lat;lon;timestamp;pressure;altitude;pressure_sealevel;temperature;humidity
12468;BME280;57850;52.922;6.256;2023-02-20T00:00:05;102556.34;;;8.43;nan
12468;BME280;57850;52.922;6.256;2023-02-20T00:02:32;102562.41;;;8.63;nan
12468;BME280;57850;52.922;6.256;2023-02-20T00:04:58;102551.16;;;8.61;nan
12468;BME280;57850;52.922;6.256;2023-02-20T00:07:26;102539.84;;;8.80;nan
12468;BME280;57850;52.922;6.256;2023-02-20T00:09:52;102549.38;;;8.87;nan
12468;BME280;57850;52.922;6.256;2023-02-20T00:12:19;102559.78;;;8.89;nan
12468;BME280;57850;52.922;6.256;2023-02-20T00:14:45;102560.66;;;8.77;nan
12468;BME280;57850;52.922;6.256;2023-02-20T00:17:12;102546.78;;;8.81;nan
12468;BME280;57850;52.922;6.256;2023-02-20T00:19:38;102550.25;;;8.65;nan
12468;BME280;57850;52.922;6.256;2023-02-20T00:22:05;102558.09;;;8.60;nan
12468;BME280;57850;52.922;6.256;2023-02-20T00:24:33;102558.09;;;8.54;nan
12468;BME280;57850;52.922;6.256;2023-02-20T00:27:00;102539.00;;;8.63;nan
12468;BME280;57850;52.922;6.256;2023-02-20T00:29:27;102523.38;;;8.86;nan
12468;BME280;57850;52.922;6.256;2023-02-20T00:31:56;102512.09;;;8.79;nan
12468;BME280;57850;52.922;6.256;2023-02-20T00:34:25;102503.41;;;8.83;nan
12468;BME280;57850;52.922;6.256;2023-02-20T00:36:52;102493.81;;;8.90;nan
12468;BME280;57850;52.922;6.256;2023-02-20T00:39:19;102490.38;;;8.77;nan
12468;BME280;57850;52.922;6.256;2023-02-20T00:41:47;102466.94;;;8.92;nan
12468;BME280;57850;52.922;6.256;2023-02-20T00:44:14;102452.19;;;8.90;nan
12468;BME280;57850;52.922;6.256;2023-02-20T00:46:40;102459.13;;;8.98;nan
12468;BME280;57850;52.922;6.256;2023-02-20T00:49:07;102461.72;;;8.97;nan
12468;BME280;57850;52.922;6.256;2023-02-20T00:51:33;102459.94;;;9.03;nan
12468;BME280;57850;52.922;6.256;2023-02-20T00:54:00;102487.78;;;8.80;nan
12468;BME280;57850;52.922;6.256;2023-02-20T00:56:27;102473.88;;;8.93;nan
12468;BME280;57850;52.922;6.256;2023-02-20T00:58:55;102468.72;;;8.80;nan
12468;BME280;57850;52.922;6.256;2023-02-20T01:01:22;102466.97;;;8.80;nan
12468;BME280;57850;52.922;6.256;2023-02-20T01:03:49;102471.28;;;8.90;nan
12468;BME280;57850;52.922;6.256;2023-02-20T01:06:16;102458.25;;;8.90;nan
12468;BME280;57850;52.922;6.256;2023-02-20T01:08:43;102472.19;;;8.79;nan
12468;BME280;57850;52.922;6.256;2023-02-20T01:11:09;102453.09;;;8.83;nan
12468;BME280;57850;52.922;6.256;2023-02-20T01:13:36;102454.84;;;8.75;nan
12468;BME280;57850;52.922;6.256;2023-02-20T01:16:05;102455.75;;;8.68;nan
12468;BME280;57850;52.922;6.256;2023-02-20T01:18:32;102436.63;;;8.78;nan
12468;BME280;57850;52.922;6.256;2023-02-20T01:20:59;102435.78;;;8.73;nan
12468;BME280;57850;52.922;6.256;2023-02-20T01:23:26;102436.56;;;8.91;nan
12468;BME280;57850;52.922;6.256;2023-02-20T01:25:52;102432.22;;;8.98;nan
12468;BME280;57850;52.922;6.256;2023-02-20T01:28:19;102441.78;;;8.87;nan
12468;BME280;57850;52.922;6.256;2023-02-20T01:30:45;102441.75;;;8.93;nan
12468;BME280;57850;52.922;6.256;2023-02-20T01:33:13;102426.94;;;9.13;nan
12468;BME280;57850;52.922;6.256;2023-02-20T01:35:40;102411.31;;;9.18;nan
12468;BME280;57850;52.922;6.256;2023-02-20T01:38:06;102393.88;;;9.26;nan
12468;BME280;57850;52.922;6.256;2023-02-20T01:40:33;102389.47;;;9.34;nan
12468;BME280;57850;52.922;6.256;2023-02-20T01:43:01;102404.25;;;9.35;nan
12468;BME280;57850;52.922;6.256;2023-02-20T01:45:34;102397.25;;;9.41;nan
12468;BME280;57850;52.922;6.256;2023-02-20T01:48:02;102385.13;;;9.39;nan
12468;BME280;57850;52.922;6.256;2023-02-20T01:50:34;102393.81;;;9.38;nan
12468;BME280;57850;52.922;6.256;2023-02-20T01:53:04;102392.00;;;9.47;nan
12468;BME280;57850;52.922;6.256;2023-02-20T01:55:37;102372.94;;;9.42;nan
12468;BME280;57850;52.922;6.256;2023-02-20T01:58:09;102380.66;;;9.53;nan
12468;BME280;57850;52.922;6.256;2023-02-20T02:00:37;102385.94;;;9.45;nan
12468;BME280;57850;52.922;6.256;2023-02-20T02:03:06;102382.47;;;9.48;nan
12468;BME280;57850;52.922;6.256;2023-02-20T02:05:36;102362.38;;;9.59;nan
12468;BME280;57850;52.922;6.256;2023-02-20T02:08:05;102358.97;;;9.49;nan
12468;BME280;57850;52.922;6.256;2023-02-20T02:10:37;102353.72;;;9.57;nan
12468;BME280;57850;52.922;6.256;2023-02-20T02:13:06;102350.28;;;9.53;nan
12468;BME280;57850;52.922;6.256;2023-02-20T02:15:33;102345.13;;;9.47;nan
12468;BME280;57850;52.922;6.256;2023-02-20T02:18:29;102341.63;;;9.48;nan
12468;BME280;57850;52.922;6.256;2023-02-20T02:31:10;102311.91;;;9.72;nan
12468;BME280;57850;52.922;6.256;2023-02-20T02:33:56;102310.19;;;9.68;nan
12468;BME280;57850;52.922;6.256;2023-02-20T02:36:37;102309.50;;;9.46;nan
12468;BME280;57850;52.922;6.256;2023-02-20T02:39:16;102304.22;;;9.57;nan
12468;BME280;57850;52.922;6.256;2023-02-20T02:41:52;102292.88;;;9.64;nan
12468;BME280;57850;52.922;6.256;2023-02-20T02:44:24;102295.38;;;9.73;nan
12468;BME280;57850;52.922;6.256;2023-02-20T02:46:58;102290.22;;;9.70;nan
12468;BME280;57850;52.922;6.256;2023-02-20T02:49:33;102287.66;;;9.64;nan
12468;BME280;57850;52.922;6.256;2023-02-20T02:52:04;102294.56;;;9.69;nan
12468;BME280;57850;52.922;6.256;2023-02-20T02:54:32;102299.78;;;9.65;nan
12468;BME280;57850;52.922;6.256;2023-02-20T02:57:19;102284.09;;;9.74;nan
12468;BME280;57850;52.922;6.256;2023-02-20T02:59:49;102281.56;;;9.63;nan
12468;BME280;57850;52.922;6.256;2023-02-20T03:02:19;102269.22;;;9.82;nan
12468;BME280;57850;52.922;6.256;2023-02-20T03:04:49;102266.66;;;9.79;nan
12468;BME280;57850;52.922;6.256;2023-02-20T03:07:19;102264.03;;;9.79;nan
12468;BME280;57850;52.922;6.256;2023-02-20T03:09:50;102263.09;;;9.89;nan
12468;BME280;57850;52.922;6.256;2023-02-20T03:12:18;102258.00;;;9.77;nan
12468;BME280;57850;52.922;6.256;2023-02-20T03:14:51;102250.22;;;9.74;nan
12468;BME280;57850;52.922;6.256;2023-02-20T03:17:39;102233.59;;;9.81;nan
12468;BME280;57850;52.922;6.256;2023-02-20T03:20:11;102235.63;;;9.53;nan
12468;BME280;57850;52.922;6.256;2023-02-20T03:22:44;102233.09;;;9.49;nan
12468;BME280;57850;52.922;6.256;2023-02-20T03:25:16;102237.19;;;9.71;nan
12468;BME280;57850;52.922;6.256;2023-02-20T03:27:46;102232.84;;;9.72;nan
12468;BME280;57850;52.922;6.256;2023-02-20T03:30:20;102222.44;;;9.68;nan
12468;BME280;57850;52.922;6.256;2023-02-20T03:32:51;102223.38;;;9.63;nan
12468;BME280;57850;52.922;6.256;2023-02-20T03:35:38;102211.22;;;9.62;nan
12468;BME280;57850;52.922;6.256;2023-02-20T03:38:27;102214.50;;;9.81;nan
12468;BME280;57850;52.922;6.256;2023-02-20T03:41:13;102208.47;;;9.77;nan
12468;BME280;57850;52.922;6.256;2023-02-20T03:44:01;102193.81;;;9.67;nan
12468;BME280;57850;52.922;6.256;2023-02-20T03:46:32;102192.94;;;9.66;nan
12468;BME280;57850;52.922;6.256;2023-02-20T03:49:03;102186.00;;;9.67;nan
12468;BME280;57850;52.922;6.256;2023-02-20T03:51:31;102166.84;;;9.68;nan
12468;BME280;57850;52.922;6.256;2023-02-20T03:54:00;102162.50;;;9.70;nan
12468;BME280;57850;52.922;6.256;2023-02-20T03:56:29;102177.16;;;9.80;nan
12468;BME280;57850;52.922;6.256;2023-02-20T03:59:01;102167.66;;;9.75;nan
12468;BME280;57850;52.922;6.256;2023-02-20T04:01:31;102163.19;;;9.86;nan
12468;BME280;57850;52.922;6.256;2023-02-20T04:04:02;102163.94;;;9.95;nan
12468;BME280;57850;52.922;6.256;2023-02-20T04:06:31;102146.34;;;10.14;nan
12468;BME280;57850;52.922;6.256;2023-02-20T04:09:06;102154.50;;;9.85;nan
12468;BME280;57850;52.922;6.256;2023-02-20T04:11:37;102155.13;;;10.05;nan
12468;BME280;57850;52.922;6.256;2023-02-20T04:14:05;102165.75;;;9.87;nan
12468;BME280;57850;52.922;6.256;2023-02-20T04:16:37;102165.78;;;9.84;nan
12468;BME280;57850;52.922;6.256;2023-02-20T04:19:05;102137.25;;;9.75;nan
12468;BME280;57850;52.922;6.256;2023-02-20T04:21:36;102130.84;;;10.00;nan
12468;BME280;57850;52.922;6.256;2023-02-20T04:24:08;102138.81;;;9.90;nan
12468;BME280;57850;52.922;6.256;2023-02-20T04:26:36;102149.38;;;9.79;nan
12468;BME280;57850;52.922;6.256;2023-02-20T04:29:03;102119.50;;;10.03;nan
12468;BME280;57850;52.922;6.256;2023-02-20T04:31:31;102131.16;;;9.75;nan
12468;BME280;57850;52.922;6.256;2023-02-20T04:33:58;102137.91;;;9.92;nan
12468;BME280;57850;52.922;6.256;2023-02-20T04:36:25;102111.00;;;9.89;nan
12468;BME280;57850;52.922;6.256;2023-02-20T04:38:52;102112.72;;;9.93;nan
12468;BME280;57850;52.922;6.256;2023-02-20T04:41:20;102109.09;;;10.00;nan
12468;BME280;57850;52.922;6.256;2023-02-20T04:43:47;102105.44;;;10.16;nan
12468;BME280;57850;52.922;6.256;2023-02-20T04:46:14;102133.56;;;9.91;nan
12468;BME280;57850;52.922;6.256;2023-02-20T04:48:41;102124.88;;;9.91;nan
12468;BME280;57850;52.922;6.256;2023-02-20T04:51:08;102108.94;;;10.15;nan
12468;BME280;57850;52.922;6.256;2023-02-20T04:53:35;102126.63;;;9.92;nan
12468;BME280;57850;52.922;6.256;2023-02-20T04:56:01;102104.75;;;10.02;nan
12468;BME280;57850;52.922;6.256;2023-02-20T04:58:29;102108.19;;;10.05;nan
12468;BME280;57850;52.922;6.256;2023-02-20T05:00:58;102112.66;;;9.94;nan
12468;BME280;57850;52.922;6.256;2023-02-20T05:03:24;102097.97;;;9.89;nan
12468;BME280;57850;52.922;6.256;2023-02-20T05:05:51;102094.47;;;9.91;nan
12468;BME280;57850;52.922;6.256;2023-02-20T05:08:17;102082.13;;;10.05;nan
12468;BME280;57850;52.922;6.256;2023-02-20T05:10:45;102093.50;;;9.97;nan
12468;BME280;57850;52.922;6.256;2023-02-20T05:13:12;102077.78;;;10.04;nan
12468;BME280;57850;52.922;6.256;2023-02-20T05:15:39;102092.84;;;9.81;nan
12468;BME280;57850;52.922;6.256;2023-02-20T05:18:06;102060.31;;;10.09;nan
12468;BME280;57850;52.922;6.256;2023-02-20T05:20:32;102065.56;;;10.08;nan
12468;BME280;57850;52.922;6.256;2023-02-20T05:23:16;102082.38;;;9.84;nan
12468;BME280;57850;52.922;6.256;2023-02-20T05:25:43;102060.44;;;10.02;nan
12468;BME280;57850;52.922;6.256;2023-02-20T05:28:10;102074.34;;;9.99;nan
12468;BME280;57850;52.922;6.256;2023-02-20T05:30:37;102073.59;;;9.91;nan
12468;BME280;57850;52.922;6.256;2023-02-20T05:33:05;102082.13;;;10.05;nan
12468;BME280;57850;52.922;6.256;2023-02-20T05:35:32;102085.56;;;10.06;nan
12468;BME280;57850;52.922;6.256;2023-02-20T05:38:01;102084.72;;;10.02;nan
12468;BME280;57850;52.922;6.256;2023-02-20T05:40:27;102084.72;;;10.02;nan
12468;BME280;57850;52.922;6.256;2023-02-20T05:42:54;102085.72;;;9.95;nan
12468;BME280;57850;52.922;6.256;2023-02-20T05:45:21;102080.44;;;10.01;nan
12468;BME280;57850;52.922;6.256;2023-02-20T05:47:47;102064.31;;;10.35;nan
12468;BME280;57850;52.922;6.256;2023-02-20T05:50:16;102064.59;;;10.12;nan
12468;BME280;57850;52.922;6.256;2023-02-20T05:52:44;102056.66;;;10.23;nan
12468;BME280;57850;52.922;6.256;2023-02-20T05:55:11;102056.75;;;10.16;nan
12468;BME280;57850;52.922;6.256;2023-02-20T05:57:38;102064.59;;;10.16;nan
12468;BME280;57850;52.922;6.256;2023-02-20T06:00:06;102056.81;;;10.13;nan
12468;BME280;57850;52.922;6.256;2023-02-20T06:02:35;102049.81;;;10.15;nan
12468;BME280;57850;52.922;6.256;2023-02-20T06:05:03;102042.59;;;10.33;nan
12468;BME280;57850;52.922;6.256;2023-02-20T06:07:33;102037.22;;;10.42;nan
12468;BME280;57850;52.922;6.256;2023-02-20T06:10:01;102046.81;;;10.41;nan
12468;BME280;57850;52.922;6.256;2023-02-20T06:12:27;102047.41;;;10.58;nan
12468;BME280;57850;52.922;6.256;2023-02-20T06:17:20;102027.34;;;10.60;nan
12468;BME280;57850;52.922;6.256;2023-02-20T06:19:48;102053.19;;;10.22;nan
12468;BME280;57850;52.922;6.256;2023-02-20T06:22:15;102055.59;;;10.36;nan
12468;BME280;57850;52.922;6.256;2023-02-20T06:24:45;102075.69;;;10.29;nan
12468;BME280;57850;52.922;6.256;2023-02-20T06:27:11;102072.59;;;10.61;nan
12468;BME280;57850;52.922;6.256;2023-02-20T06:29:38;102076.94;;;10.59;nan
12468;BME280;57850;52.922;6.256;2023-02-20T06:32:05;102106.56;;;10.56;nan
12468;BME280;57850;52.922;6.256;2023-02-20T06:34:32;102097.03;;;10.54;nan
12468;BME280;57850;52.922;6.256;2023-02-20T06:37:02;102103.22;;;10.48;nan
12468;BME280;57850;52.922;6.256;2023-02-20T06:39:31;102098.16;;;10.38;nan
12468;BME280;57850;52.922;6.256;2023-02-20T06:41:59;102088.44;;;10.47;nan
12468;BME280;57850;52.922;6.256;2023-02-20T06:44:26;102087.44;;;10.57;nan
12468;BME280;57850;52.922;6.256;2023-02-20T06:46:53;102103.31;;;10.42;nan
12468;BME280;57850;52.922;6.256;2023-02-20T06:49:19;102090.25;;;10.44;nan
12468;BME280;57850;52.922;6.256;2023-02-20T06:51:46;102100.09;;;10.27;nan
12468;BME280;57850;52.922;6.256;2023-02-20T06:54:12;102093.75;;;10.43;nan
12468;BME280;57850;52.922;6.256;2023-02-20T06:56:39;102103.38;;;10.38;nan
12468;BME280;57850;52.922;6.256;2023-02-20T06:59:07;102105.78;;;10.51;nan
12468;BME280;57850;52.922;6.256;2023-02-20T07:01:39;102096.53;;;10.32;nan
12468;BME280;57850;52.922;6.256;2023-02-20T07:04:08;102096.53;;;10.31;nan
12468;BME280;57850;52.922;6.256;2023-02-20T07:06:39;102110.25;;;10.45;nan
12468;BME280;57850;52.922;6.256;2023-02-20T07:09:06;102095.50;;;10.42;nan
12468;BME280;57850;52.922;6.256;2023-02-20T07:11:33;102088.53;;;10.43;nan
12468;BME280;57850;52.922;6.256;2023-02-20T07:14:00;102091.94;;;10.48;nan
12468;BME280;57850;52.922;6.256;2023-02-20T07:16:28;102106.41;;;10.07;nan
12468;BME280;57850;52.922;6.256;2023-02-20T07:18:55;102048.94;;;10.16;nan
12468;BME280;57850;52.922;6.256;2023-02-20T07:21:22;102056.97;;;10.56;nan
12468;BME280;57850;52.922;6.256;2023-02-20T07:23:48;102088.69;;;10.31;nan
12468;BME280;57850;52.922;6.256;2023-02-20T07:26:17;102092.06;;;10.39;nan
12468;BME280;57850;52.922;6.256;2023-02-20T07:28:43;102100.03;;;10.30;nan
12468;BME280;57850;52.922;6.256;2023-02-20T07:31:10;102095.69;;;10.30;nan
12468;BME280;57850;52.922;6.256;2023-02-20T07:33:38;102095.25;;;10.56;nan
12468;BME280;57850;52.922;6.256;2023-02-20T07:36:07;102102.13;;;10.63;nan
12468;BME280;57850;52.922;6.256;2023-02-20T07:38:35;102089.28;;;10.51;nan
12468;BME280;57850;52.922;6.256;2023-02-20T07:41:02;102078.88;;;10.46;nan
12468;BME280;57850;52.922;6.256;2023-02-20T07:43:28;102087.72;;;10.39;nan
12468;BME280;57850;52.922;6.256;2023-02-20T07:45:55;102109.41;;;10.43;nan
12468;BME280;57850;52.922;6.256;2023-02-20T07:48:24;102071.94;;;10.47;nan
12468;BME280;57850;52.922;6.256;2023-02-20T07:50:52;102074.44;;;10.53;nan
12468;BME280;57850;52.922;6.256;2023-02-20T07:53:19;102084.97;;;10.47;nan
12468;BME280;57850;52.922;6.256;2023-02-20T07:55:46;102081.34;;;10.57;nan
12468;BME280;57850;52.922;6.256;2023-02-20T07:58:13;102103.19;;;10.50;nan
12468;BME280;57850;52.922;6.256;2023-02-20T08:00:40;102100.53;;;10.53;nan
12468;BME280;57850;52.922;6.256;2023-02-20T08:03:07;102089.91;;;10.65;nan
12468;BME280;57850;52.922;6.256;2023-02-20T08:05:33;102105.44;;;10.72;nan
12468;BME280;57850;52.922;6.256;2023-02-20T08:08:02;102129.81;;;10.73;nan
12468;BME280;57850;52.922;6.256;2023-02-20T08:10:29;102109.41;;;10.93;nan
12468;BME280;57850;52.922;6.256;2023-02-20T08:12:55;102117.47;;;10.81;nan
12468;BME280;57850;52.922;6.256;2023-02-20T08:15:22;102102.06;;;10.66;nan
12468;BME280;57850;52.922;6.256;2023-02-20T08:17:49;102110.13;;;10.52;nan
12468;BME280;57850;52.922;6.256;2023-02-20T08:20:17;102119.56;;;10.61;nan
12468;BME280;57850;52.922;6.256;2023-02-20T08:22:45;102112.44;;;10.70;nan
12468;BME280;57850;52.922;6.256;2023-02-20T08:25:15;102089.72;;;10.75;nan
12468;BME280;57850;52.922;6.256;2023-02-20T08:27:43;102107.31;;;11.15;nan
12468;BME280;57850;52.922;6.256;2023-02-20T08:30:11;102109.19;;;11.08;nan
12468;BME280;57850;52.922;6.256;2023-02-20T08:32:39;102121.69;;;10.90;nan
12468;BME280;57850;52.922;6.256;2023-02-20T08:35:06;102133.13;;;10.81;nan
12468;BME280;57850;52.922;6.256;2023-02-20T08:37:32;102127.91;;;10.83;nan
12468;BME280;57850;52.922;6.256;2023-02-20T08:39:59;102109.47;;;10.90;nan
12468;BME280;57850;52.922;6.256;2023-02-20T08:42:32;102118.53;;;10.69;nan
12468;BME280;57850;52.922;6.256;2023-02-20T08:44:59;102107.91;;;10.82;nan
12468;BME280;57850;52.922;6.256;2023-02-20T08:47:25;102098.25;;;10.85;nan
12468;BME280;57850;52.922;6.256;2023-02-20T08:49:52;102101.19;;;10.65;nan
12468;BME280;57850;52.922;6.256;2023-02-20T08:52:18;102084.59;;;10.71;nan
12468;BME280;57850;52.922;6.256;2023-02-20T08:54:46;102068.03;;;11.19;nan
12468;BME280;57850;52.922;6.256;2023-02-20T08:57:13;102106.81;;;10.93;nan
12468;BME280;57850;52.922;6.256;2023-02-20T08:59:41;102077.03;;;11.05;nan
12468;BME280;57850;52.922;6.256;2023-02-20T09:02:15;102080.22;;;11.19;nan
12468;BME280;57850;52.922;6.256;2023-02-20T09:04:42;102060.06;;;11.27;nan
12468;BME280;57850;52.922;6.256;2023-02-20T09:07:09;102067.09;;;11.22;nan
12468;BME280;57850;52.922;6.256;2023-02-20T09:09:36;102092.47;;;11.17;nan
12468;BME280;57850;52.922;6.256;2023-02-20T09:12:02;102109.53;;;11.35;nan
12468;BME280;57850;52.922;6.256;2023-02-20T09:14:29;102104.88;;;11.50;nan
12468;BME280;57850;52.922;6.256;2023-02-20T09:16:57;102094.84;;;11.29;nan
12468;BME280;57850;52.922;6.256;2023-02-20T09:19:23;102098.97;;;11.42;nan
12468;BME280;57850;52.922;6.256;2023-02-20T09:21:50;102133.00;;;11.38;nan
12468;BME280;57850;52.922;6.256;2023-02-20T09:24:16;102098.22;;;11.34;nan
12468;BME280;57850;52.922;6.256;2023-02-20T09:26:43;102098.13;;;11.40;nan
12468;BME280;57850;52.922;6.256;2023-02-20T09:29:09;102090.66;;;11.20;nan
12468;BME280;57850;52.922;6.256;2023-02-20T09:31:36;102090.94;;;11.51;nan
12468;BME280;57850;52.922;6.256;2023-02-20T09:34:05;102087.44;;;11.52;nan
12468;BME280;57850;52.922;6.256;2023-02-20T09:36:31;102093.41;;;11.59;nan
12468;BME280;57850;52.922;6.256;2023-02-20T09:38:58;102102.94;;;11.60;nan
12468;BME280;57850;52.922;6.256;2023-02-20T09:41:34;102101.13;;;11.63;nan
12468;BME280;57850;52.922;6.256;2023-02-20T09:44:06;102116.13;;;11.54;nan
12468;BME280;57850;52.922;6.256;2023-02-20T09:46:38;102108.91;;;11.66;nan
12468;BME280;57850;52.922;6.256;2023-02-20T09:49:09;102105.63;;;11.57;nan
12468;BME280;57850;52.922;6.256;2023-02-20T09:51:41;102097.81;;;11.55;nan
12468;BME280;57850;52.922;6.256;2023-02-20T09:54:11;102117.31;;;11.38;nan
12468;BME280;57850;52.922;6.256;2023-02-20T09:56:41;102111.78;;;11.54;nan
12468;BME280;57850;52.922;6.256;2023-02-20T09:59:15;102139.31;;;11.27;nan
12468;BME280;57850;52.922;6.256;2023-02-20T10:01:51;102112.41;;;11.65;nan
12468;BME280;57850;52.922;6.256;2023-02-20T10:04:21;102109.66;;;11.28;nan
12468;BME280;57850;52.922;6.256;2023-02-20T10:06:52;102111.34;;;11.33;nan
12468;BME280;57850;52.922;6.256;2023-02-20T10:09:20;102113.75;;;11.43;nan
12468;BME280;57850;52.922;6.256;2023-02-20T10:11:55;102116.94;;;11.59;nan
12468;BME280;57850;52.922;6.256;2023-02-20T10:14:37;102102.56;;;11.37;nan
12468;BME280;57850;52.922;6.256;2023-02-20T10:17:16;102114.59;;;11.44;nan
12468;BME280;57850;52.922;6.256;2023-02-20T10:19:49;102120.22;;;11.24;nan
12468;BME280;57850;52.922;6.256;2023-02-20T10:22:19;102103.25;;;11.46;nan
12468;BME280;57850;52.922;6.256;2023-02-20T10:24:57;102108.03;;;11.67;nan
12468;BME280;57850;52.922;6.256;2023-02-20T10:27:30;102125.59;;;11.59;nan
12468;BME280;57850;52.922;6.256;2023-02-20T10:30:03;102120.69;;;11.44;nan
12468;BME280;57850;52.922;6.256;2023-02-20T10:32:37;102122.31;;;11.50;nan
12468;BME280;57850;52.922;6.256;2023-02-20T10:35:10;102123.53;;;11.32;nan
12468;BME280;57850;52.922;6.256;2023-02-20T10:37:41;102120.38;;;11.61;nan
12468;BME280;57850;52.922;6.256;2023-02-20T10:40:16;102118.13;;;11.41;nan
12468;BME280;57850;52.922;6.256;2023-02-20T10:42:49;102103.13;;;11.51;nan
12468;BME280;57850;52.922;6.256;2023-02-20T10:45:23;102106.41;;;11.62;nan
12468;BME280;57850;52.922;6.256;2023-02-20T10:47:56;102092.06;;;11.82;nan
12468;BME280;57850;52.922;6.256;2023-02-20T10:50:31;102115.31;;;11.52;nan
12468;BME280;57850;52.922;6.256;2023-02-20T10:53:03;102118.00;;;11.93;nan
12468;BME280;57850;52.922;6.256;2023-02-20T10:55:37;102112.03;;;11.85;nan
12468;BME280;57850;52.922;6.256;2023-02-20T10:58:10;102116.53;;;11.80;nan
12468;BME280;57850;52.922;6.256;2023-02-20T11:00:42;102107.16;;;11.67;nan
12468;BME280;57850;52.922;6.256;2023-02-20T11:03:14;102099.84;;;11.86;nan
12468;BME280;57850;52.922;6.256;2023-02-20T11:05:47;102101.13;;;11.65;nan
12468;BME280;57850;52.922;6.256;2023-02-20T11:08:16;102092.19;;;11.76;nan
12468;BME280;57850;52.922;6.256;2023-02-20T11:10:45;102088.25;;;11.56;nan
12468;BME280;57850;52.922;6.256;2023-02-20T11:13:15;102093.22;;;11.68;nan
12468;BME280;57850;52.922;6.256;2023-02-20T11:15:44;102126.59;;;11.54;nan
12468;BME280;57850;52.922;6.256;2023-02-20T11:18:18;102116.13;;;11.98;nan
12468;BME280;57850;52.922;6.256;2023-02-20T11:20:48;102123.88;;;12.03;nan
12468;BME280;57850;52.922;6.256;2023-02-20T11:23:37;102130.75;;;12.07;nan
12468;BME280;57850;52.922;6.256;2023-02-20T11:26:30;102132.84;;;11.91;nan
12468;BME280;57850;52.922;6.256;2023-02-20T11:29:01;102112.56;;;12.01;nan
12468;BME280;57850;52.922;6.256;2023-02-20T11:31:28;102103.97;;;11.96;nan
12468;BME280;57850;52.922;6.256;2023-02-20T11:33:55;102106.34;;;12.06;nan
12468;BME280;57850;52.922;6.256;2023-02-20T11:36:26;102108.88;;;12.09;nan
12468;BME280;57850;52.922;6.256;2023-02-20T11:38:57;102101.91;;;12.10;nan
12468;BME280;57850;52.922;6.256;2023-02-20T11:41:30;102116.91;;;12.02;nan
12468;BME280;57850;52.922;6.256;2023-02-20T11:44:20;102109.59;;;12.17;nan
12468;BME280;57850;52.922;6.256;2023-02-20T11:47:08;102120.66;;;12.30;nan
12468;BME280;57850;52.922;6.256;2023-02-20T11:49:35;102105.75;;;12.32;nan
12468;BME280;57850;52.922;6.256;2023-02-20T11:52:08;102115.72;;;12.16;nan
12468;BME280;57850;52.922;6.256;2023-02-20T11:54:40;102097.47;;;12.13;nan
12468;BME280;57850;52.922;6.256;2023-02-20T11:57:19;102119.41;;;12.08;nan
12468;BME280;57850;52.922;6.256;2023-02-20T11:59:48;102091.50;;;12.08;nan
12468;BME280;57850;52.922;6.256;2023-02-20T12:02:24;102090.78;;;12.39;nan
12468;BME280;57850;52.922;6.256;2023-02-20T12:05:15;102095.19;;;12.37;nan
12468;BME280;57850;52.922;6.256;2023-02-20T12:07:53;102091.88;;;12.65;nan
12468;BME280;57850;52.922;6.256;2023-02-20T12:10:38;102097.66;;;12.43;nan
12468;BME280;57850;52.922;6.256;2023-02-20T12:13:11;102087.06;;;12.47;nan
12468;BME280;57850;52.922;6.256;2023-02-20T12:15:38;102101.09;;;12.46;nan
12468;BME280;57850;52.922;6.256;2023-02-20T12:21:15;102101.47;;;12.29;nan
12468;BME280;57850;52.922;6.256;2023-02-20T12:23:54;102091.59;;;12.41;nan
12468;BME280;57850;52.922;6.256;2023-02-20T12:26:34;102091.06;;;12.26;nan
12468;BME280;57850;52.922;6.256;2023-02-20T12:29:17;102085.66;;;12.34;nan
12468;BME280;57850;52.922;6.256;2023-02-20T12:31:59;102095.88;;;12.45;nan
12468;BME280;57850;52.922;6.256;2023-02-20T12:34:39;102094.84;;;12.50;nan
12468;BME280;57850;52.922;6.256;2023-02-20T12:37:18;102088.22;;;12.35;nan
12468;BME280;57850;52.922;6.256;2023-02-20T12:39:59;102095.19;;;12.37;nan
12468;BME280;57850;52.922;6.256;2023-02-20T12:42:34;102076.59;;;12.47;nan
12468;BME280;57850;52.922;6.256;2023-02-20T12:45:24;102082.56;;;12.54;nan
12468;BME280;57850;52.922;6.256;2023-02-20T12:48:05;102077.25;;;12.57;nan
12468;BME280;57850;52.922;6.256;2023-02-20T12:50:41;102092.88;;;12.60;nan
12468;BME280;57850;52.922;6.256;2023-02-20T12:53:21;102067.44;;;12.29;nan
12468;BME280;57850;52.922;6.256;2023-02-20T12:56:06;102060.09;;;12.45;nan
12468;BME280;57850;52.922;6.256;2023-02-20T12:58:46;102062.34;;;12.23;nan
12468;BME280;57850;52.922;6.256;2023-02-20T13:01:15;102071.28;;;12.50;nan
12468;BME280;57850;52.922;6.256;2023-02-20T13:03:48;102073.34;;;12.38;nan
12468;BME280;57850;52.922;6.256;2023-02-20T13:06:24;102059.91;;;12.53;nan
12468;BME280;57850;52.922;6.256;2023-02-20T13:08:57;102063.09;;;12.65;nan
12468;BME280;57850;52.922;6.256;2023-02-20T13:11:32;102091.88;;;12.30;nan
12468;BME280;57850;52.922;6.256;2023-02-20T13:14:07;102064.38;;;12.48;nan
12468;BME280;57850;52.922;6.256;2023-02-20T13:16:46;102067.38;;;12.68;nan
12468;BME280;57850;52.922;6.256;2023-02-20T13:19:19;102077.31;;;12.54;nan
12468;BME280;57850;52.922;6.256;2023-02-20T13:21:47;102065.06;;;12.56;nan
12468;BME280;57850;52.922;6.256;2023-02-20T13:24:32;102067.22;;;12.74;nan
12468;BME280;57850;52.922;6.256;2023-02-20T13:27:02;102057.28;;;12.53;nan
12468;BME280;57850;52.922;6.256;2023-02-20T13:29:31;102050.47;;;12.46;nan
12468;BME280;57850;52.922;6.256;2023-02-20T13:32:00;102054.44;;;12.62;nan
12468;BME280;57850;52.922;6.256;2023-02-20T13:34:37;102046.03;;;12.49;nan
12468;BME280;57850;52.922;6.256;2023-02-20T13:40:35;102048.91;;;12.39;nan
12468;BME280;57850;52.922;6.256;2023-02-20T13:43:24;102044.34;;;12.47;nan
12468;BME280;57850;52.922;6.256;2023-02-20T13:46:10;102035.88;;;12.35;nan
12468;BME280;57850;52.922;6.256;2023-02-20T13:48:40;102032.56;;;12.63;nan
12468;BME280;57850;52.922;6.256;2023-02-20T13:51:30;102035.34;;;12.57;nan